Terminal Aerodrome Forecast
Issued by NWS

Home | Current Version | Previous Version | Graphics & Text | Print | Product List | Glossary On
Versions: 1 2 3 4 5 6 7 8 9 10 11 12 13 14 15 16 17
000
FTUS43 KABR 281722 AAA
TAFPIR
TAF AMD
KPIR 281722Z 2817/2918 36006KT P6SM BKN200
     FM290400 VRB04KT P6SM BKN100
     FM291400 33006KT P6SM SCT250=

USA.gov is the U.S. government's official web portal to all federal, state and local government web resources and services.